Time;durP1;ratioP1;P1;durP2;ratioP2;P2;SDS_P1;SDS_P2;PMS_P1;PMS_P2;Temp;Humidity;BMP_temperature;BMP_pressure;BME280_temperature;BME280_humidity;BME280_pressure;Samples;Min_cycle;Max_cycle;Signal;HPM_P1;HPM_P2
2023/12/03 00:02:16;;;;;;;;;;;;;;;-0.67;76.39;101154.38;4206759;28;19954;-92
2023/12/03 00:04:37;;;;;;;;;;;;;;;-0.66;76.21;101156.06;4205344;28;20329;-85
2023/12/03 00:06:59;;;;;;;;;;;;;;;-0.68;76.15;101161.47;4198209;28;19931;-86
2023/12/03 00:09:22;;;;;;;;;;;;;;;-0.68;76.41;101156.16;4186920;28;20279;-86
2023/12/03 00:11:42;;;;;;;;;;;;;;;-0.67;76.21;101167.66;4180295;28;20020;-85
2023/12/03 00:14:04;;;;;;;;;;;;;;;-0.66;76.39;101169.34;4184920;28;19975;-87
2023/12/03 00:16:29;;;;;;;;;;;;;;;-0.67;76.21;101168.50;4194062;28;20267;-87
2023/12/03 00:18:52;;;;;;;;;;;;;;;-0.67;76.23;101171.16;4199462;28;19966;-87
2023/12/03 00:21:16;;;;;;;;;;;;;;;-0.67;76.14;101167.66;4179411;28;20420;-88
2023/12/03 00:23:37;;;;;;;;;;;;;;;-0.65;76.42;101173.69;4209018;28;19986;-87
2023/12/03 00:26:00;;;;;;;;;;;;;;;-0.64;76.10;101178.03;4181377;28;20024;-85
2023/12/03 00:28:23;;;;;;;;;;;;;;;-0.64;76.24;101175.38;4189910;28;19991;-87
2023/12/03 00:30:47;;;;;;;;;;;;;;;-0.64;76.01;101172.75;4195925;28;20065;-89
2023/12/03 00:33:20;;;;;;;;;;;;;;;;;;;;;
2023/12/03 00:35:41;;;;;;;;;;;;;;;-0.66;76.22;101183.47;4203264;28;20011;-87
2023/12/03 00:38:01;;;;;;;;;;;;;;;-0.64;76.08;101181.56;4192810;28;19931;-85
2023/12/03 00:40:26;;;;;;;;;;;;;;;-0.63;76.08;101188.56;4209981;28;19931;-84
2023/12/03 00:42:47;;;;;;;;;;;;;;;-0.63;76.32;101187.72;4182448;28;19931;-86
2023/12/03 00:45:08;;;;;;;;;;;;;;;-0.62;76.21;101194.75;4193512;28;19940;-85
2023/12/03 00:47:29;;;;;;;;;;;;;;;-0.63;76.02;101203.63;4206096;28;19970;-87
2023/12/03 00:49:52;;;;;;;;;;;;;;;-0.64;76.16;101197.47;4207459;28;19956;-86
2023/12/03 00:52:14;;;;;;;;;;;;;;;-0.63;76.22;101187.72;4189471;28;20012;-87
2023/12/03 00:54:37;;;;;;;;;;;;;;;-0.63;76.25;101199.16;4192504;28;20004;-86
2023/12/03 00:56:57;;;;;;;;;;;;;;;-0.62;75.98;101208.84;4191561;28;20303;-88
2023/12/03 00:59:19;;;;;;;;;;;;;;;-0.63;76.16;101215.09;4188563;28;19931;-86
2023/12/03 01:01:40;;;;;;;;;;;;;;;-0.62;75.97;101218.63;4205190;28;19931;-86
2023/12/03 01:04:03;;;;;;;;;;;;;;;-0.66;76.01;101214.44;4199726;28;19931;-86
2023/12/03 01:06:25;;;;;;;;;;;;;;;-0.67;76.30;101223.34;4204446;28;19940;-86
2023/12/03 01:08:45;;;;;;;;;;;;;;;-0.68;76.29;101216.34;4177569;28;20464;-85
2023/12/03 01:11:06;;;;;;;;;;;;;;;-0.68;76.06;101211.03;4208110;28;20023;-86
2023/12/03 01:13:29;;;;;;;;;;;;;;;-0.68;76.24;101219.81;4205884;28;20314;-87
2023/12/03 01:15:52;;;;;;;;;;;;;;;-0.69;76.31;101228.75;4207476;28;19962;-88
2023/12/03 01:18:12;;;;;;;;;;;;;;;-0.68;76.16;101221.63;4207646;28;19931;-85
2023/12/03 01:20:33;;;;;;;;;;;;;;;-0.68;76.10;101226.94;4190709;28;19940;-85
2023/12/03 01:22:55;;;;;;;;;;;;;;;-0.69;76.25;101231.41;4204751;28;20390;-85
2023/12/03 01:25:16;;;;;;;;;;;;;;;-0.71;76.39;101235.94;4177878;28;20351;-86
2023/12/03 01:27:38;;;;;;;;;;;;;;;-0.70;76.45;101242.09;4208453;28;20546;-86
2023/12/03 01:30:03;;;;;;;;;;;;;;;-0.70;76.56;101245.59;4197246;28;20012;-88
2023/12/03 01:32:24;;;;;;;;;;;;;;;-0.71;76.69;101246.53;4192995;28;20011;-88
2023/12/03 01:34:52;;;;;;;;;;;;;;;-0.72;76.58;101255.47;4175756;28;20402;-87
2023/12/03 01:37:15;;;;;;;;;;;;;;;-0.70;76.34;101253.56;4200880;28;19986;-89
2023/12/03 01:39:38;;;;;;;;;;;;;;;-0.70;76.40;101252.72;4178460;28;19936;-88
2023/12/03 01:41:59;;;;;;;;;;;;;;;-0.70;76.36;101263.34;4189714;28;19986;-89
2023/12/03 01:44:20;;;;;;;;;;;;;;;-0.69;76.16;101257.06;4188828;28;19999;-87
2023/12/03 01:46:43;;;;;;;;;;;;;;;-0.71;76.24;101266.91;4192714;28;20012;-89
2023/12/03 01:49:04;;;;;;;;;;;;;;;-0.71;76.16;101262.47;4205707;28;19931;-88
2023/12/03 01:51:28;;;;;;;;;;;;;;;-0.71;76.22;101266.91;4192294;28;19975;-87
2023/12/03 01:53:48;;;;;;;;;;;;;;;-0.74;76.76;101271.47;4177947;28;19932;-87
2023/12/03 01:56:16;;;;;;;;;;;;;;;-0.74;76.69;101271.47;4193167;28;19959;-87
2023/12/03 01:58:38;;;;;;;;;;;;;;;-0.76;76.91;101276.00;4164766;28;20033;-86
2023/12/03 02:01:00;;;;;;;;;;;;;;;-0.75;76.86;101275.06;4206807;28;19931;-88
2023/12/03 02:03:24;;;;;;;;;;;;;;;-0.74;76.59;101273.25;4172735;28;20362;-87
2023/12/03 02:05:49;;;;;;;;;;;;;;;-0.75;76.74;101275.06;4207630;28;19932;-87
2023/12/03 02:08:10;;;;;;;;;;;;;;;-0.74;76.52;101284.72;4197110;28;19930;-88
2023/12/03 02:10:31;;;;;;;;;;;;;;;-0.77;76.79;101282.25;4206580;28;19931;-86
2023/12/03 02:12:52;;;;;;;;;;;;;;;-0.76;77.00;101291.06;4197842;28;20015;-89
2023/12/03 02:15:15;;;;;;;;;;;;;;;-0.77;76.87;101298.19;4196435;28;19931;-87
2023/12/03 02:17:35;;;;;;;;;;;;;;;-0.76;76.81;101299.88;4184070;28;19999;-88
2023/12/03 02:19:56;;;;;;;;;;;;;;;-0.77;76.95;101299.94;4193356;28;19992;-87
2023/12/03 02:22:18;;;;;;;;;;;;;;;-0.80;77.24;101294.81;4191465;28;19932;-88
2023/12/03 02:24:41;;;;;;;;;;;;;;;-0.79;77.28;101305.34;4198604;28;19931;-89
2023/12/03 02:27:12;;;;;;;;;;;;;;;-0.80;77.25;101308.97;4204179;28;20016;-89
2023/12/03 02:29:32;;;;;;;;;;;;;;;-0.80;77.22;101310.75;4205559;28;19966;-88
2023/12/03 02:31:53;;;;;;;;;;;;;;;-0.79;76.92;101308.00;4207307;28;19938;-88
2023/12/03 02:34:14;;;;;;;;;;;;;;;-0.80;76.79;101310.75;4171000;28;20410;-87
2023/12/03 02:36:35;;;;;;;;;;;;;;;-0.79;76.84;101312.47;4181309;28;19970;-88
2023/12/03 02:38:55;;;;;;;;;;;;;;;-0.80;76.96;101310.75;4176546;28;19935;-87
2023/12/03 02:41:16;;;;;;;;;;;;;;;-0.79;76.83;101309.81;4195969;28;20440;-88
2023/12/03 02:43:39;;;;;;;;;;;;;;;-0.80;76.99;101313.38;4187393;28;20042;-88
2023/12/03 02:46:00;;;;;;;;;;;;;;;-0.79;76.86;101308.00;4174448;28;19932;-88
2023/12/03 02:48:20;;;;;;;;;;;;;;;-0.78;76.46;101308.88;4186372;28;20416;-89
2023/12/03 02:50:41;;;;;;;;;;;;;;;-0.80;76.71;101314.28;4193305;28;20445;-88
2023/12/03 02:53:01;;;;;;;;;;;;;;;-0.79;76.73;101317.75;4180444;28;20633;-87
2023/12/03 02:55:22;;;;;;;;;;;;;;;-0.80;76.52;101316.91;4204078;28;19931;-86
2023/12/03 02:57:48;;;;;;;;;;;;;;;-0.80;76.58;101313.38;4183739;28;19935;-87
2023/12/03 03:00:11;;;;;;;;;;;;;;;-0.81;76.97;101317.84;4190064;28;19930;-84
2023/12/03 03:02:32;;;;;;;;;;;;;;;-0.81;77.16;101314.34;4202412;28;19931;-85
2023/12/03 03:04:52;;;;;;;;;;;;;;;-0.81;77.15;101317.84;4203463;28;20333;-85
2023/12/03 03:07:12;;;;;;;;;;;;;;;-0.82;77.13;101326.75;4204500;28;19939;-86
2023/12/03 03:09:33;;;;;;;;;;;;;;;-0.80;76.92;101330.19;4205488;28;19931;-85
2023/12/03 03:11:57;;;;;;;;;;;;;;;-0.82;76.78;101326.75;4201146;28;20517;-86
2023/12/03 03:14:23;;;;;;;;;;;;;;;-0.81;76.88;101332.94;4183748;28;19936;-89
2023/12/03 03:17:00;;;;;;;;;;;;;;;-0.83;77.12;101324.19;4183798;28;20453;-85
2023/12/03 03:19:21;;;;;;;;;;;;;;;-0.82;77.38;101333.84;4180652;28;19931;-85
2023/12/03 03:21:41;;;;;;;;;;;;;;;-0.82;77.20;101328.56;4181164;28;20437;-87
2023/12/03 03:24:02;;;;;;;;;;;;;;;-0.81;77.12;101330.28;4179807;28;19935;-87
2023/12/03 03:26:23;;;;;;;;;;;;;;;-0.83;77.10;101332.13;4191314;28;19931;-85
2023/12/03 03:28:44;;;;;;;;;;;;;;;-0.82;77.09;101340.00;4178691;28;20308;-86
2023/12/03 03:31:05;;;;;;;;;;;;;;;-0.82;77.12;101340.00;4204274;28;19932;-85
2023/12/03 03:33:27;;;;;;;;;;;;;;;-0.82;76.94;101340.00;4206176;28;20310;-87
2023/12/03 03:35:48;;;;;;;;;;;;;;;-0.82;76.80;101339.16;4190938;28;20020;-87
2023/12/03 03:38:08;;;;;;;;;;;;;;;-0.81;76.82;101354.13;4190150;28;19980;-87
2023/12/03 03:40:29;;;;;;;;;;;;;;;-0.81;76.75;101354.13;4207081;28;19931;-86
2023/12/03 03:42:50;;;;;;;;;;;;;;;-0.81;76.77;101356.78;4181691;28;20499;-87
2023/12/03 03:45:11;;;;;;;;;;;;;;;-0.80;76.53;101355.84;4177514;28;19932;-87
2023/12/03 03:47:34;;;;;;;;;;;;;;;-0.81;76.54;101356.78;4203130;28;19931;-86
2023/12/03 03:49:58;;;;;;;;;;;;;;;-0.82;76.84;101353.28;4189031;28;19932;-88
2023/12/03 03:52:19;;;;;;;;;;;;;;;-0.81;76.65;101352.34;4190469;28;20006;-85
2023/12/03 03:54:40;;;;;;;;;;;;;;;-0.81;76.73;101348.84;4203430;28;19936;-86
2023/12/03 03:57:00;;;;;;;;;;;;;;;-0.82;77.28;101357.72;4202109;28;20027;-85
2023/12/03 03:59:20;;;;;;;;;;;;;;;-0.83;77.42;101354.22;4204025;28;19934;-84
2023/12/03 04:01:44;;;;;;;;;;;;;;;-0.82;77.63;101355.06;4188709;28;20000;-84
2023/12/03 04:04:05;;;;;;;;;;;;;;;-0.81;77.48;101360.28;4204949;28;19970;-85
2023/12/03 04:06:27;;;;;;;;;;;;;;;-0.81;77.20;101352.34;4207830;28;19931;-85
2023/12/03 04:08:48;;;;;;;;;;;;;;;-0.80;76.99;101350.53;4204765;28;19934;-84
2023/12/03 04:11:08;;;;;;;;;;;;;;;-0.79;76.65;101349.59;4193187;28;20012;-84
2023/12/03 04:13:29;;;;;;;;;;;;;;;-0.77;76.64;101347.69;4206678;28;20055;-85
2023/12/03 04:15:49;;;;;;;;;;;;;;;-0.77;76.38;101345.91;4207204;28;20246;-87
2023/12/03 04:18:10;;;;;;;;;;;;;;;-0.74;76.43;101353.69;4178965;28;20314;-86
2023/12/03 04:20:30;;;;;;;;;;;;;;;-0.74;76.20;101358.13;4189276;28;19978;-85
2023/12/03 04:22:52;;;;;;;;;;;;;;;-0.74;76.14;101361.66;4207055;28;20429;-84
2023/12/03 04:25:13;;;;;;;;;;;;;;;-0.75;76.64;101367.06;4178909;28;20012;-85
2023/12/03 04:27:33;;;;;;;;;;;;;;;-0.76;76.75;101363.53;4178267;28;19932;-84
2023/12/03 04:29:53;;;;;;;;;;;;;;;-0.75;76.67;101362.59;4192570;28;20027;-86
2023/12/03 04:32:15;;;;;;;;;;;;;;;-0.75;76.70;101365.25;4205797;28;20404;-85
2023/12/03 04:34:39;;;;;;;;;;;;;;;-0.74;76.63;101364.31;4191630;28;19936;-85
2023/12/03 04:37:00;;;;;;;;;;;;;;;-0.75;76.52;101362.59;4205652;28;19931;-84
2023/12/03 04:39:22;;;;;;;;;;;;;;;-0.74;76.83;101363.44;4208453;28;19934;-84
2023/12/03 04:41:43;;;;;;;;;;;;;;;-0.75;77.01;101359.94;4205387;28;19935;-85
2023/12/03 04:44:04;;;;;;;;;;;;;;;-0.75;77.23;101365.25;4187782;28;20286;-84
2023/12/03 04:46:25;;;;;;;;;;;;;;;-0.74;77.28;101366.09;4190451;28;19932;-86
2023/12/03 04:48:46;;;;;;;;;;;;;;;-0.75;77.08;101369.72;4189864;28;19982;-83
2023/12/03 04:51:07;;;;;;;;;;;;;;;-0.73;77.13;101367.81;4207962;28;20370;-84
2023/12/03 04:53:28;;;;;;;;;;;;;;;-0.74;77.22;101374.94;4192113;28;19930;-85
2023/12/03 04:55:59;;;;;;;;;;;;;;;-0.75;77.17;101375.84;4173184;28;19935;-85
2023/12/03 04:58:20;;;;;;;;;;;;;;;-0.75;77.26;101377.66;4208096;28;19935;-85
2023/12/03 05:00:40;;;;;;;;;;;;;;;-0.77;77.63;101380.41;4205949;28;19931;-87
2023/12/03 05:03:01;;;;;;;;;;;;;;;-0.76;77.67;101374.13;4192289;28;19932;-88
2023/12/03 05:05:21;;;;;;;;;;;;;;;-0.74;77.30;101382.00;4207464;28;19934;-85
2023/12/03 05:07:42;;;;;;;;;;;;;;;-0.75;77.12;101378.50;4193689;28;19935;-85
2023/12/03 05:10:03;;;;;;;;;;;;;;;-0.73;76.98;101383.72;4209705;28;19931;-85
2023/12/03 05:12:24;;;;;;;;;;;;;;;-0.71;76.86;101380.97;4205124;28;19967;-85
2023/12/03 05:14:44;;;;;;;;;;;;;;;-0.70;76.84;101386.19;4176277;28;20465;-84
2023/12/03 05:17:05;;;;;;;;;;;;;;;-0.71;76.92;101383.63;4191724;28;19974;-84
2023/12/03 05:19:26;;;;;;;;;;;;;;;-0.69;77.09;101390.56;4188261;28;19932;-86
2023/12/03 05:21:46;;;;;;;;;;;;;;;-0.69;76.86;101387.91;4189950;28;19971;-85
2023/12/03 05:24:07;;;;;;;;;;;;;;;-0.68;76.88;101391.41;4191132;28;19931;-84
2023/12/03 05:26:27;;;;;;;;;;;;;;;-0.68;76.84;101400.22;4193250;28;20019;-84
2023/12/03 05:28:49;;;;;;;;;;;;;;;-0.67;76.90;101398.44;4205260;28;20499;-85
2023/12/03 05:31:10;;;;;;;;;;;;;;;-0.66;76.73;101397.47;4203640;28;19970;-86
2023/12/03 05:33:30;;;;;;;;;;;;;;;-0.68;77.01;101396.72;4191091;28;19942;-86
2023/12/03 05:35:51;;;;;;;;;;;;;;;-0.68;77.13;101397.56;4206657;28;19978;-85
2023/12/03 05:38:12;;;;;;;;;;;;;;;-0.66;77.08;101398.34;4172375;28;19983;-86
2023/12/03 05:40:33;;;;;;;;;;;;;;;-0.66;77.05;101406.31;4207052;28;19982;-85
2023/12/03 05:42:54;;;;;;;;;;;;;;;-0.63;77.16;101413.22;4181436;28;19932;-84
2023/12/03 05:45:16;;;;;;;;;;;;;;;-0.64;77.19;101406.19;4207230;28;20421;-86
2023/12/03 05:47:37;;;;;;;;;;;;;;;-0.64;77.05;101415.03;4203848;28;19931;-85
2023/12/03 05:49:58;;;;;;;;;;;;;;;-0.62;77.19;101405.19;4178115;28;19944;-84
2023/12/03 05:52:18;;;;;;;;;;;;;;;-0.64;77.08;101417.69;4206032;28;19931;-85
2023/12/03 05:54:39;;;;;;;;;;;;;;;-0.64;77.34;101416.81;4205572;28;19970;-84
2023/12/03 05:57:00;;;;;;;;;;;;;;;-0.65;77.19;101418.63;4189818;28;20029;-85
2023/12/03 05:59:22;;;;;;;;;;;;;;;-0.66;77.14;101422.25;4206314;28;20170;-84
2023/12/03 06:01:44;;;;;;;;;;;;;;;-0.65;77.43;101415.13;4191063;28;20027;-85
2023/12/03 06:04:07;;;;;;;;;;;;;;;-0.62;77.20;101425.56;4205929;28;19932;-84
2023/12/03 06:06:27;;;;;;;;;;;;;;;-0.61;77.28;101424.59;4190070;28;19975;-84
2023/12/03 06:08:48;;;;;;;;;;;;;;;-0.61;77.45;101419.28;4204438;28;19932;-85
2023/12/03 06:11:09;;;;;;;;;;;;;;;-0.59;77.36;101430.69;4207056;28;19959;-83
2023/12/03 06:13:30;;;;;;;;;;;;;;;-0.60;77.51;101431.63;4203604;28;19947;-84
2023/12/03 06:15:51;;;;;;;;;;;;;;;-0.61;77.65;101430.78;4205446;28;19970;-84
2023/12/03 06:18:13;;;;;;;;;;;;;;;-0.60;77.43;101432.47;4189492;28;20427;-84
2023/12/03 06:20:33;;;;;;;;;;;;;;;-0.59;77.65;101436.00;4205345;28;19951;-85
2023/12/03 06:22:54;;;;;;;;;;;;;;;-0.58;77.51;101440.34;4204516;28;19994;-84
2023/12/03 06:25:15;;;;;;;;;;;;;;;-0.57;77.65;101434.09;4205734;28;19978;-83
2023/12/03 06:27:35;;;;;;;;;;;;;;;-0.58;77.57;101435.03;4205107;28;20291;-85
2023/12/03 06:29:57;;;;;;;;;;;;;;;-0.57;77.55;101434.09;4176538;28;20336;-84
2023/12/03 06:32:22;;;;;;;;;;;;;;;-0.57;77.52;101432.28;4191337;28;19939;-87
2023/12/03 06:34:44;;;;;;;;;;;;;;;-0.57;77.61;101450.03;4179013;28;20466;-84
2023/12/03 06:37:06;;;;;;;;;;;;;;;-0.57;77.49;101447.38;4191659;28;19983;-85
2023/12/03 06:39:28;;;;;;;;;;;;;;;-0.57;77.53;101456.19;4192496;28;19931;-84
2023/12/03 06:41:49;;;;;;;;;;;;;;;-0.56;77.84;101457.91;4205620;28;19982;-85
2023/12/03 06:44:12;;;;;;;;;;;;;;;-0.56;77.49;101460.56;4208433;28;20394;-85
2023/12/03 06:46:38;;;;;;;;;;;;;;;-0.56;77.51;101465.00;4177486;28;20389;-84
2023/12/03 06:48:59;;;;;;;;;;;;;;;-0.57;77.72;101461.47;4203032;28;20320;-85
2023/12/03 06:51:22;;;;;;;;;;;;;;;-0.58;77.58;101470.41;4200981;28;20428;-85
2023/12/03 06:53:42;;;;;;;;;;;;;;;-0.56;77.56;101476.47;4206392;28;19931;-84
2023/12/03 06:56:04;;;;;;;;;;;;;;;-0.56;77.58;101479.13;4189326;28;20012;-85
2023/12/03 06:58:25;;;;;;;;;;;;;;;-0.56;77.68;101483.59;4188982;28;19930;-84
2023/12/03 07:00:46;;;;;;;;;;;;;;;-0.56;77.64;101486.25;4203734;28;19931;-83
2023/12/03 07:03:07;;;;;;;;;;;;;;;-0.55;77.59;101485.28;4202701;28;19932;-81
2023/12/03 07:05:28;;;;;;;;;;;;;;;-0.56;77.52;101484.44;4189305;28;19975;-81
2023/12/03 07:07:51;;;;;;;;;;;;;;;-0.56;77.40;101492.38;4205111;28;20250;-81
2023/12/03 07:10:11;;;;;;;;;;;;;;;-0.52;77.37;101486.91;4203841;28;20310;-81
2023/12/03 07:12:32;;;;;;;;;;;;;;;-0.58;77.53;101488.97;4202801;28;19938;-82
2023/12/03 07:14:52;;;;;;;;;;;;;;;-0.55;77.48;101504.72;4199950;28;20840;-86
2023/12/03 07:17:13;;;;;;;;;;;;;;;-0.55;77.50;101493.25;4202608;28;19930;-81
2023/12/03 07:19:33;;;;;;;;;;;;;;;-0.54;77.47;101494.97;4200840;28;19952;-84
2023/12/03 07:21:54;;;;;;;;;;;;;;;-0.53;77.50;101499.34;4172515;28;20022;-82
2023/12/03 07:24:17;;;;;;;;;;;;;;;-0.55;77.49;101504.72;4189194;28;20012;-82
2023/12/03 07:26:37;;;;;;;;;;;;;;;-0.55;77.47;101501.19;4189448;28;19987;-84
2023/12/03 07:28:58;;;;;;;;;;;;;;;-0.55;77.67;101506.50;4187704;28;19947;-83
2023/12/03 07:31:19;;;;;;;;;;;;;;;-0.56;77.57;101508.31;4186025;28;20451;-81
2023/12/03 07:33:39;;;;;;;;;;;;;;;-0.56;77.56;101508.31;4202648;28;20348;-81
2023/12/03 07:35:59;;;;;;;;;;;;;;;-0.57;77.52;101514.56;4202264;28;19974;-82
2023/12/03 07:38:20;;;;;;;;;;;;;;;-0.57;77.71;101511.91;4185836;28;19948;-83
2023/12/03 07:40:42;;;;;;;;;;;;;;;-0.55;77.59;101518.00;4195800;28;19933;-81
2023/12/03 07:43:02;;;;;;;;;;;;;;;-0.55;77.56;101518.00;4199643;28;19939;-83
2023/12/03 07:45:23;;;;;;;;;;;;;;;-0.55;77.60;101519.78;4198962;28;19974;-82
2023/12/03 07:47:44;;;;;;;;;;;;;;;-0.56;77.27;101526.88;4203033;28;19998;-83
2023/12/03 07:50:05;;;;;;;;;;;;;;;-0.56;77.43;101534.84;4186795;28;19986;-85
2023/12/03 07:52:26;;;;;;;;;;;;;;;-0.55;77.47;101536.56;4171152;28;19991;-81
2023/12/03 07:54:47;;;;;;;;;;;;;;;-0.53;77.31;101538.25;4187373;28;19932;-81
2023/12/03 07:57:09;;;;;;;;;;;;;;;-0.53;77.62;101538.25;4202769;28;20024;-81
2023/12/03 07:59:29;;;;;;;;;;;;;;;-0.56;77.57;101534.84;4172324;28;19986;-81
2023/12/03 08:01:50;;;;;;;;;;;;;;;-0.52;77.43;101537.34;4173820;28;20010;-82
2023/12/03 08:04:11;;;;;;;;;;;;;;;-0.53;77.45;101541.78;4202860;28;20005;-83
2023/12/03 08:06:31;;;;;;;;;;;;;;;-0.53;77.62;101543.56;4202275;28;19981;-84
2023/12/03 08:08:52;;;;;;;;;;;;;;;-0.52;77.57;101540.84;4200082;28;20393;-84
2023/12/03 08:11:13;;;;;;;;;;;;;;;-0.52;77.67;101540.00;4201669;28;19959;-83
2023/12/03 08:13:38;;;;;;;;;;;;;;;-0.52;77.71;101540.84;4185811;28;21225;-83
2023/12/03 08:15:58;;;;;;;;;;;;;;;-0.51;77.59;101544.38;4200908;28;19931;-84
2023/12/03 08:18:19;;;;;;;;;;;;;;;-0.52;77.55;101561.22;4187245;28;19931;-84
2023/12/03 08:20:39;;;;;;;;;;;;;;;-0.56;78.18;101553.44;4186755;28;20007;-87
2023/12/03 08:23:00;;;;;;;;;;;;;;;-0.55;78.28;101554.28;4185949;28;20409;-86
2023/12/03 08:25:21;;;;;;;;;;;;;;;-0.55;78.05;101551.63;4202359;28;19935;-84
2023/12/03 08:27:42;;;;;;;;;;;;;;;-0.56;78.32;101550.78;4200850;28;19938;-86
2023/12/03 08:30:06;;;;;;;;;;;;;;;-0.55;78.28;101554.28;4186751;28;19974;-84
2023/12/03 08:32:27;;;;;;;;;;;;;;;-0.54;78.10;101561.31;4172337;28;20330;-83
2023/12/03 08:34:47;;;;;;;;;;;;;;;-0.53;78.04;101563.03;4201941;28;19973;-83
2023/12/03 08:37:08;;;;;;;;;;;;;;;-0.53;77.78;101562.16;4185865;28;19975;-85
2023/12/03 08:39:28;;;;;;;;;;;;;;;-0.56;77.76;101558.72;4201459;28;19931;-84
2023/12/03 08:41:48;;;;;;;;;;;;;;;-0.56;77.94;101558.72;4201812;28;19933;-84
2023/12/03 08:44:09;;;;;;;;;;;;;;;-0.55;77.79;101560.44;4172096;28;19932;-84
2023/12/03 08:46:32;;;;;;;;;;;;;;;-0.55;78.03;101565.75;4200151;28;20386;-85
2023/12/03 08:48:53;;;;;;;;;;;;;;;-0.56;77.85;101574.66;4174046;28;19935;-84
2023/12/03 08:51:14;;;;;;;;;;;;;;;-0.57;78.05;101569.44;4203407;28;19938;-83
2023/12/03 08:53:35;;;;;;;;;;;;;;;-0.57;78.09;101578.22;4202468;28;19938;-86
2023/12/03 08:55:59;;;;;;;;;;;;;;;-0.57;77.91;101567.63;4201800;28;20028;-88
2023/12/03 08:58:19;;;;;;;;;;;;;;;-0.58;78.22;101567.69;4202788;28;20287;-82
2023/12/03 09:00:40;;;;;;;;;;;;;;;-0.59;78.01;101574.81;4188266;28;19962;-83
2023/12/03 09:03:03;;;;;;;;;;;;;;;-0.58;78.04;101576.53;4204792;28;19947;-85
2023/12/03 09:05:24;;;;;;;;;;;;;;;-0.57;78.09;101580.03;4176850;28;20889;-82
2023/12/03 09:07:44;;;;;;;;;;;;;;;-0.57;78.21;101580.88;4202794;28;19931;-81
2023/12/03 09:10:06;;;;;;;;;;;;;;;-0.57;78.10;101578.22;4201931;28;19932;-84
2023/12/03 09:12:26;;;;;;;;;;;;;;;-0.59;78.24;101577.47;4185114;28;19975;-84
2023/12/03 09:14:47;;;;;;;;;;;;;;;-0.59;78.50;101580.13;4200868;28;20032;-83
2023/12/03 09:17:09;;;;;;;;;;;;;;;-0.58;78.40;101583.63;4203546;28;19935;-82
2023/12/03 09:19:31;;;;;;;;;;;;;;;-0.57;78.28;101598.63;4202252;28;19939;-82
2023/12/03 09:21:52;;;;;;;;;;;;;;;-0.56;78.36;101592.38;4204232;28;19982;-85
2023/12/03 09:24:13;;;;;;;;;;;;;;;-0.57;78.34;101593.31;4204117;28;19935;-83
2023/12/03 09:26:34;;;;;;;;;;;;;;;-0.58;78.62;101591.59;4188449;28;19935;-86
2023/12/03 09:28:55;;;;;;;;;;;;;;;-0.58;78.85;101599.53;4203694;28;20032;-85
2023/12/03 09:31:16;;;;;;;;;;;;;;;-0.57;78.58;101594.16;4190846;28;20000;-84
2023/12/03 09:33:36;;;;;;;;;;;;;;;-0.55;78.40;101602.03;4203880;28;19970;-83
2023/12/03 09:35:59;;;;;;;;;;;;;;;-0.55;78.16;101599.38;4177241;28;19936;-83
2023/12/03 09:38:20;;;;;;;;;;;;;;;-0.55;78.30;101597.59;4188436;28;19932;-84
2023/12/03 09:40:41;;;;;;;;;;;;;;;-0.56;78.51;101603.84;4189394;28;20012;-83
2023/12/03 09:43:03;;;;;;;;;;;;;;;-0.57;78.71;101607.44;4204175;28;19931;-84
2023/12/03 09:45:26;;;;;;;;;;;;;;;-0.55;78.49;101605.56;4189186;28;20280;-83
2023/12/03 09:47:49;;;;;;;;;;;;;;;-0.55;78.13;101613.53;4191226;28;20343;-87
2023/12/03 09:50:09;;;;;;;;;;;;;;;-0.53;78.12;101618.75;4189997;28;19935;-83
2023/12/03 09:52:33;;;;;;;;;;;;;;;-0.56;78.03;101613.59;4202584;28;20321;-82
2023/12/03 09:54:54;;;;;;;;;;;;;;;-0.58;78.34;101619.00;4176722;28;20314;-84
2023/12/03 09:57:14;;;;;;;;;;;;;;;-0.59;78.38;101622.59;4186282;28;20507;-83
2023/12/03 09:59:35;;;;;;;;;;;;;;;-0.60;78.53;101620.00;4205134;28;20389;-83
2023/12/03 10:01:56;;;;;;;;;;;;;;;-0.62;78.73;101620.09;4187951;28;19990;-90
2023/12/03 10:04:17;;;;;;;;;;;;;;;-0.58;78.65;101628.75;4203468;28;19935;-85
2023/12/03 10:06:41;;;;;;;;;;;;;;;-0.60;78.59;101618.19;4176999;28;19991;-83
2023/12/03 10:09:04;;;;;;;;;;;;;;;-0.60;78.83;101622.66;4176215;28;19932;-83
2023/12/03 10:11:26;;;;;;;;;;;;;;;-0.59;78.73;101617.28;4190103;28;19931;-89
2023/12/03 10:13:47;;;;;;;;;;;;;;;-0.60;78.74;101620.00;4189007;28;19932;-85
2023/12/03 10:16:08;;;;;;;;;;;;;;;-0.59;78.70;101621.75;4172944;28;19936;-86
2023/12/03 10:18:31;;;;;;;;;;;;;;;-0.59;78.81;101621.75;4188907;28;19931;-84
2023/12/03 10:21:04;;;;;;;;;;;;;;;-0.60;78.78;101627.97;4186778;28;20052;-86
2023/12/03 10:23:26;;;;;;;;;;;;;;;-0.59;78.65;101613.78;4188494;28;20019;-86
2023/12/03 10:25:48;;;;;;;;;;;;;;;-0.57;78.43;101619.84;4176779;28;19932;-84
2023/12/03 10:28:09;;;;;;;;;;;;;;;-0.56;78.29;101616.25;4194570;28;20346;-85
2023/12/03 10:30:30;;;;;;;;;;;;;;;-0.53;78.20;101621.41;4187230;28;19931;-87
2023/12/03 10:32:51;;;;;;;;;;;;;;;-0.53;78.05;101620.53;4200949;28;19931;-85
2023/12/03 10:35:12;;;;;;;;;;;;;;;-0.53;78.25;101624.06;4191139;28;19936;-85
2023/12/03 10:37:39;;;;;;;;;;;;;;;-0.53;77.91;101624.06;4204051;28;19977;-85
2023/12/03 10:40:00;;;;;;;;;;;;;;;-0.52;77.93;101623.09;4162917;28;20351;-84
2023/12/03 10:42:23;;;;;;;;;;;;;;;-0.52;77.93;101632.88;4202713;28;20535;-85
2023/12/03 10:44:44;;;;;;;;;;;;;;;-0.49;77.70;101625.59;4204795;28;19970;-85
2023/12/03 10:47:04;;;;;;;;;;;;;;;-0.50;77.93;101628.31;4201831;28;19939;-84
2023/12/03 10:49:27;;;;;;;;;;;;;;;-0.49;77.73;101628.25;4184361;28;20442;-85
2023/12/03 10:51:48;;;;;;;;;;;;;;;-0.48;77.66;101634.44;4176017;28;20474;-85
2023/12/03 10:54:09;;;;;;;;;;;;;;;-0.52;77.96;101639.03;4184809;28;20667;-86
2023/12/03 10:56:30;;;;;;;;;;;;;;;-0.52;78.47;101638.19;4200431;28;19969;-85
2023/12/03 10:58:53;;;;;;;;;;;;;;;-0.52;78.27;101628.41;4185614;28;20311;-85
2023/12/03 11:01:15;;;;;;;;;;;;;;;-0.51;78.11;101630.13;4181897;28;19974;-86
2023/12/03 11:03:41;;;;;;;;;;;;;;;-0.50;78.00;101630.97;4179648;28;19944;-85
2023/12/03 11:06:04;;;;;;;;;;;;;;;-0.51;78.07;101638.09;4178264;28;20278;-85
2023/12/03 11:08:25;;;;;;;;;;;;;;;-0.51;77.89;101640.75;4176821;28;20448;-83
2023/12/03 11:10:46;;;;;;;;;;;;;;;-0.51;78.16;101640.75;4182410;28;20017;-83
2023/12/03 11:13:06;;;;;;;;;;;;;;;-0.47;77.90;101650.25;4182473;28;19947;-82
2023/12/03 11:15:28;;;;;;;;;;;;;;;-0.46;77.79;101646.66;4174723;28;19971;-83
2023/12/03 11:17:49;;;;;;;;;;;;;;;-0.45;77.74;101650.19;4184133;28;20386;-86
2023/12/03 11:20:11;;;;;;;;;;;;;;;-0.46;77.46;101651.97;4195710;28;19931;-86
2023/12/03 11:22:36;;;;;;;;;;;;;;;-0.49;77.73;101654.78;4180787;28;19978;-86
2023/12/03 11:24:57;;;;;;;;;;;;;;;-0.49;77.89;101652.13;4185142;28;20322;-87
2023/12/03 11:27:30;;;;;;;;;;;;;;;;;;;;;
2023/12/03 11:29:52;;;;;;;;;;;;;;;-0.48;77.48;101667.13;4181483;28;19935;-84
2023/12/03 11:32:14;;;;;;;;;;;;;;;-0.48;77.57;101656.50;4184604;28;20290;-85
2023/12/03 11:34:44;;;;;;;;;;;;;;;-0.48;77.32;101660.97;4183936;28;19939;-88
2023/12/03 11:37:07;;;;;;;;;;;;;;;-0.49;77.40;101669.84;4180897;28;19974;-86
2023/12/03 11:39:28;;;;;;;;;;;;;;;-0.50;77.34;101666.34;4179204;28;20012;-87
2023/12/03 11:41:53;;;;;;;;;;;;;;;-0.50;77.45;101670.78;4180688;28;19932;-85
2023/12/03 11:44:18;;;;;;;;;;;;;;;-0.48;77.26;101672.44;4182397;28;19932;-86
2023/12/03 11:46:44;;;;;;;;;;;;;;;-0.48;77.24;101677.72;4179530;28;20313;-88
2023/12/03 11:49:06;;;;;;;;;;;;;;;-0.49;77.21;101683.13;4180975;28;19935;-87
2023/12/03 11:51:33;;;;;;;;;;;;;;;-0.49;77.12;101689.28;4183574;28;19931;-87
2023/12/03 11:54:17;;;;;;;;;;;;;;;-0.51;76.94;101690.31;4184895;28;19931;-85
2023/12/03 11:56:43;;;;;;;;;;;;;;;-0.55;77.10;101693.13;4181778;28;19955;-84
2023/12/03 11:59:05;;;;;;;;;;;;;;;-0.55;77.08;101689.59;4183154;28;19976;-85
2023/12/03 12:01:30;;;;;;;;;;;;;;;-0.55;77.07;101694.91;4182241;28;19989;-87
2023/12/03 12:03:53;;;;;;;;;;;;;;;-0.59;77.14;101696.88;4184686;28;20001;-87
2023/12/03 12:06:17;;;;;;;;;;;;;;;-0.59;77.30;101696.03;4182943;28;19958;-85
2023/12/03 12:08:39;;;;;;;;;;;;;;;-0.56;77.35;101696.72;4185326;28;19940;-86
2023/12/03 12:11:03;;;;;;;;;;;;;;;-0.56;77.61;101694.06;4186569;28;19935;-86